createdAt,value
2023-03-30T00:02:07.110Z,99687.07
2023-03-30T00:04:41.114Z,99683.23
2023-03-30T00:07:15.434Z,99682.22
2023-03-30T00:09:47.317Z,99681.42
2023-03-30T00:12:21.093Z,99688.53
2023-03-30T00:14:54.470Z,99689.03
2023-03-30T00:17:28.539Z,99677.95
2023-03-30T00:20:03.072Z,99679.25
2023-03-30T00:22:36.796Z,99669.83
2023-03-30T00:25:12.560Z,99667.38
2023-03-30T00:27:46.686Z,99669.83
2023-03-30T00:30:21.277Z,99656.14
2023-03-30T00:32:54.468Z,99652.52
2023-03-30T00:35:29.486Z,99666.83
2023-03-30T00:38:03.766Z,99649.34
2023-03-30T00:40:38.673Z,99650.01
2023-03-30T00:43:14.425Z,99647.55
2023-03-30T00:45:47.968Z,99650.41
2023-03-30T00:48:37.576Z,99651.88
2023-03-30T00:51:12.851Z,99654.44
2023-03-30T00:53:51.403Z,99650.33
2023-03-30T00:56:28.275Z,99643.22
2023-03-30T00:59:02.996Z,99645.65
2023-03-30T01:01:38.317Z,99641.78
2023-03-30T01:04:13.454Z,99641.26
2023-03-30T01:06:47.813Z,99652.22
2023-03-30T01:09:23.055Z,99642.31
2023-03-30T01:11:57.360Z,99638.20
2023-03-30T01:14:30.535Z,99637.55
2023-03-30T01:17:23.865Z,99641.02
2023-03-30T01:20:18.973Z,99641.02
2023-03-30T01:23:28.531Z,99636.53
2023-03-30T01:26:28.277Z,99643.08
2023-03-30T01:29:08.763Z,99637.89
2023-03-30T01:31:59.570Z,99643.29
2023-03-30T01:35:13.395Z,99635.56
2023-03-30T01:38:21.691Z,99634.55
2023-03-30T01:41:15.798Z,99635.71
2023-03-30T01:43:53.244Z,99642.28
2023-03-30T01:46:48.903Z,99640.74
2023-03-30T01:49:35.500Z,99645.63
2023-03-30T01:52:41.542Z,99642.40
2023-03-30T01:55:24.940Z,99644.98
2023-03-30T01:58:21.223Z,99655.28
2023-03-30T02:00:55.417Z,99662.22
2023-03-30T02:03:32.861Z,99660.07
2023-03-30T02:06:24.110Z,99654.52
2023-03-30T02:09:01.167Z,99652.46
2023-03-30T02:11:34.887Z,99647.03
2023-03-30T02:14:09.538Z,99657.34
2023-03-30T02:16:47.933Z,99651.42
2023-03-30T02:19:22.215Z,99653.47
2023-03-30T02:21:56.608Z,99649.52
2023-03-30T02:24:31.951Z,99643.10
2023-03-30T02:27:05.559Z,99649.02
2023-03-30T02:29:43.088Z,99645.80
2023-03-30T02:32:26.293Z,99650.30
2023-03-30T02:35:22.740Z,99642.98
2023-03-30T02:38:15.508Z,99651.72
2023-03-30T02:41:36.151Z,99655.06
2023-03-30T02:44:31.792Z,99660.61
2023-03-30T02:47:14.171Z,99654.56
2023-03-30T02:49:57.284Z,99673.63
2023-03-30T02:52:53.303Z,99671.98
2023-03-30T02:55:56.288Z,99682.16
2023-03-30T02:58:38.656Z,99688.47
2023-03-30T03:01:38.800Z,99695.55
2023-03-30T03:04:15.857Z,99680.33
2023-03-30T03:06:53.304Z,99684.44
2023-03-30T03:09:26.254Z,99687.94
2023-03-30T03:11:59.339Z,99685.73
2023-03-30T03:14:34.512Z,99688.06
2023-03-30T03:17:07.788Z,99689.35
2023-03-30T03:19:42.526Z,99686.52
2023-03-30T03:22:16.085Z,99682.16
2023-03-30T03:24:49.298Z,99694.52
2023-03-30T03:27:40.767Z,99695.53
2023-03-30T03:30:15.505Z,99708.79
2023-03-30T03:32:52.224Z,99698.38
2023-03-30T03:35:25.558Z,99700.70
2023-03-30T03:37:58.967Z,99701.50
2023-03-30T03:40:32.629Z,99702.52
2023-03-30T03:43:06.724Z,99698.25
2023-03-30T03:45:40.418Z,99701.35
2023-03-30T03:48:15.053Z,99702.77
2023-03-30T03:50:59.258Z,99704.95
2023-03-30T03:53:35.195Z,99707.38
2023-03-30T03:56:11.859Z,99701.45
2023-03-30T03:58:45.602Z,99708.30
2023-03-30T04:01:20.697Z,99709.71
2023-03-30T04:03:53.291Z,99720.51
2023-03-30T04:06:27.489Z,99717.55
2023-03-30T04:08:59.533Z,99729.44
2023-03-30T04:11:34.109Z,99728.67
2023-03-30T04:14:27.456Z,99734.45
2023-03-30T04:17:15.074Z,99733.83
2023-03-30T04:20:04.774Z,99732.91
2023-03-30T04:22:42.867Z,99734.83
2023-03-30T04:25:29.433Z,99731.34
2023-03-30T04:28:12.034Z,99731.84
2023-03-30T04:30:46.580Z,99726.56
2023-03-30T04:33:28.411Z,99724.52
2023-03-30T04:36:07.270Z,99728.48
2023-03-30T04:38:44.860Z,99726.04
2023-03-30T04:41:19.274Z,99722.45
2023-03-30T04:43:54.710Z,99725.30
2023-03-30T04:46:47.843Z,99720.77
2023-03-30T04:49:26.090Z,99715.37
2023-03-30T04:52:09.646Z,99715.12
2023-03-30T04:55:03.165Z,99722.84
2023-03-30T04:57:54.718Z,99720.38
2023-03-30T05:00:42.475Z,99713.56
2023-03-30T05:03:34.884Z,99704.03
2023-03-30T05:06:13.248Z,99708.30
2023-03-30T05:08:53.908Z,99700.19
2023-03-30T05:11:46.212Z,99697.36
2023-03-30T05:14:38.224Z,99692.36
2023-03-30T05:17:29.641Z,99697.52
2023-03-30T05:20:11.468Z,99696.72
2023-03-30T05:23:04.366Z,99696.44
2023-03-30T05:25:55.846Z,99695.06
2023-03-30T05:28:48.106Z,99705.09
2023-03-30T05:31:25.654Z,99700.43
2023-03-30T05:34:20.034Z,99706.63
2023-03-30T05:36:58.140Z,99697.64
2023-03-30T05:39:40.665Z,99699.95
2023-03-30T05:42:27.534Z,99701.38
2023-03-30T05:45:19.715Z,99699.27
2023-03-30T05:48:03.694Z,99700.05
2023-03-30T05:50:53.857Z,99697.45
2023-03-30T05:53:38.037Z,99700.95
2023-03-30T05:56:18.809Z,99699.41
2023-03-30T05:58:59.882Z,99707.75
2023-03-30T06:01:47.185Z,99707.75
2023-03-30T06:04:21.118Z,99705.30
2023-03-30T06:06:54.454Z,99703.89
2023-03-30T06:09:28.263Z,99699.66
2023-03-30T06:12:02.817Z,99692.30
2023-03-30T06:14:36.394Z,99690.75
2023-03-30T06:17:27.594Z,99690.63
2023-03-30T06:20:01.519Z,99688.60
2023-03-30T06:22:36.648Z,99692.95
2023-03-30T06:25:13.927Z,99693.88
2023-03-30T06:27:47.876Z,99685.25
2023-03-30T06:30:21.661Z,99680.89
2023-03-30T06:32:56.724Z,99686.81
2023-03-30T06:35:33.179Z,99688.86
2023-03-30T06:38:06.237Z,99682.69
2023-03-30T06:40:40.361Z,99689.00
2023-03-30T06:43:18.445Z,99677.94
2023-03-30T06:45:57.566Z,99682.30
2023-03-30T06:48:32.291Z,99684.00
2023-03-30T06:51:22.741Z,99687.34
2023-03-30T06:53:55.729Z,99691.71
2023-03-30T06:56:28.721Z,99687.86
2023-03-30T06:59:07.287Z,99682.72
2023-03-30T07:01:42.003Z,99690.84
2023-03-30T07:04:16.539Z,99690.04
2023-03-30T07:06:52.468Z,99696.12
2023-03-30T07:09:26.736Z,99691.09
2023-03-30T07:12:00.341Z,99680.66
2023-03-30T07:14:33.928Z,99686.44
2023-03-30T07:17:08.085Z,99678.98
2023-03-30T07:19:43.060Z,99682.45
2023-03-30T07:22:18.427Z,99671.11
2023-03-30T07:24:51.535Z,99679.61
2023-03-30T07:27:25.618Z,99683.20
2023-03-30T07:30:10.187Z,99685.55
2023-03-30T07:32:36.735Z,99681.03
2023-03-30T07:35:11.918Z,99683.08
2023-03-30T07:37:45.358Z,99683.73
2023-03-30T07:40:18.997Z,99686.43
2023-03-30T07:42:52.848Z,99676.25
2023-03-30T07:45:25.915Z,99683.96
2023-03-30T07:47:59.222Z,99687.93
2023-03-30T07:50:32.607Z,99692.97
2023-03-30T07:53:07.221Z,99691.03
2023-03-30T07:55:42.674Z,99690.02
2023-03-30T07:58:17.515Z,99685.90
2023-03-30T08:00:50.987Z,99680.34
2023-03-30T08:03:43.985Z,99676.98
2023-03-30T08:06:17.131Z,99680.70
2023-03-30T08:08:52.081Z,99683.03
2023-03-30T08:11:25.022Z,99690.62
2023-03-30T08:13:57.884Z,99685.86
2023-03-30T08:16:31.275Z,99678.38
2023-03-30T08:19:04.129Z,99689.18
2023-03-30T08:21:37.521Z,99678.47
2023-03-30T08:24:10.823Z,99672.43
2023-03-30T08:26:45.971Z,99675.41
2023-03-30T08:29:19.289Z,99671.41
2023-03-30T08:31:54.237Z,99678.01
2023-03-30T08:34:27.824Z,99671.93
2023-03-30T08:37:00.823Z,99671.56
2023-03-30T08:39:34.029Z,99668.72
2023-03-30T08:42:37.748Z,99673.08
2023-03-30T08:45:12.568Z,99672.18
2023-03-30T08:47:50.162Z,99672.23
2023-03-30T08:50:37.822Z,99673.25
2023-03-30T08:53:12.694Z,99669.66
2023-03-30T08:55:50.299Z,99668.36
2023-03-30T08:58:39.468Z,99673.26
2023-03-30T09:01:31.751Z,99668.80
2023-03-30T09:04:30.329Z,99665.45
2023-03-30T09:07:10.513Z,99671.00
2023-03-30T09:09:49.063Z,99665.95
2023-03-30T09:12:33.898Z,99664.15
2023-03-30T09:15:29.002Z,99657.80
2023-03-30T09:18:28.437Z,99653.58
2023-03-30T09:21:06.710Z,99644.28
2023-03-30T09:23:41.778Z,99641.19
2023-03-30T09:26:28.967Z,99647.03
2023-03-30T09:29:21.512Z,99650.13
2023-03-30T09:32:17.787Z,99645.37
2023-03-30T09:35:04.520Z,99645.98
2023-03-30T09:37:38.396Z,99652.67
2023-03-30T09:40:40.022Z,99658.75
2023-03-30T09:43:47.682Z,99657.83
2023-03-30T09:46:20.882Z,99655.15
2023-03-30T09:48:54.280Z,99658.76
2023-03-30T09:51:31.475Z,99661.73
2023-03-30T09:54:07.402Z,99663.27
2023-03-30T09:56:45.268Z,99666.48
2023-03-30T09:59:34.682Z,99659.52
2023-03-30T10:02:22.223Z,99661.48
2023-03-30T10:05:00.641Z,99658.23
2023-03-30T10:07:40.997Z,99663.63
2023-03-30T10:10:36.481Z,99659.02
2023-03-30T10:13:19.930Z,99664.44
2023-03-30T10:15:55.531Z,99664.42
2023-03-30T10:18:32.212Z,99655.95
2023-03-30T10:21:10.970Z,99663.15
2023-03-30T10:23:46.378Z,99663.67
2023-03-30T10:26:21.994Z,99672.14
2023-03-30T10:29:00.820Z,99673.58
2023-03-30T10:31:37.593Z,99672.94
2023-03-30T10:34:18.517Z,99670.23
2023-03-30T10:36:54.849Z,99673.30
2023-03-30T10:39:34.348Z,99674.25
2023-03-30T10:42:09.381Z,99669.09
2023-03-30T10:44:52.984Z,99667.30
2023-03-30T10:48:03.344Z,99658.29
2023-03-30T10:51:12.944Z,99653.14
2023-03-30T10:53:57.449Z,99646.43
2023-03-30T10:56:55.870Z,99641.81
2023-03-30T10:59:36.586Z,99644.78
2023-03-30T11:02:32.893Z,99632.16
2023-03-30T11:05:22.891Z,99631.00
2023-03-30T11:08:18.697Z,99630.20
2023-03-30T11:10:57.885Z,99630.61
2023-03-30T11:13:35.126Z,99632.55
2023-03-30T11:16:21.958Z,99634.20
2023-03-30T11:19:04.958Z,99636.13
2023-03-30T11:22:03.562Z,99628.94
2023-03-30T11:24:37.147Z,99631.11
2023-03-30T11:27:16.001Z,99634.58
2023-03-30T11:30:20.907Z,99634.72
2023-03-30T11:33:31.064Z,99629.19
2023-03-30T11:36:38.238Z,99622.11
2023-03-30T11:39:31.146Z,99624.42
2023-03-30T11:41:59.448Z,99617.50
2023-03-30T11:44:34.115Z,99616.97
2023-03-30T11:47:31.576Z,99607.34
2023-03-30T11:50:45.709Z,99603.73
2023-03-30T11:53:55.688Z,99607.33
2023-03-30T11:56:53.438Z,99608.51
2023-03-30T11:59:45.256Z,99607.97
2023-03-30T12:02:51.204Z,99608.22
2023-03-30T12:05:49.758Z,99615.80
2023-03-30T12:08:44.176Z,99612.60
2023-03-30T12:11:59.125Z,99610.05
2023-03-30T12:14:46.192Z,99611.08
2023-03-30T12:17:46.569Z,99609.67
2023-03-30T12:20:56.243Z,99618.28
2023-03-30T12:24:07.248Z,99611.98
2023-03-30T12:47:14.375Z,99597.72
2023-03-30T12:50:15.673Z,99609.29
2023-03-30T12:53:16.470Z,99594.38
2023-03-30T12:55:59.862Z,99597.47
2023-03-30T12:58:59.620Z,99597.70
2023-03-30T13:02:10.177Z,99598.59
2023-03-30T13:04:46.890Z,99597.45
2023-03-30T13:07:29.512Z,99586.00
2023-03-30T13:10:07.591Z,99590.25
2023-03-30T13:12:46.069Z,99595.13
2023-03-30T13:15:43.086Z,99588.30
2023-03-30T13:18:33.511Z,99596.81
2023-03-30T13:21:27.707Z,99590.38
2023-03-30T13:24:08.598Z,99581.50
2023-03-30T13:26:45.593Z,99581.63
2023-03-30T13:29:19.121Z,99593.83
2023-03-30T13:32:39.394Z,99579.31
2023-03-30T13:35:48.856Z,99578.53
2023-03-30T13:38:42.942Z,99582.66
2023-03-30T13:41:44.465Z,99577.52
2023-03-30T13:44:42.356Z,99580.09
2023-03-30T13:48:00.750Z,99567.09
2023-03-30T13:50:35.618Z,99574.44
2023-03-30T13:53:14.607Z,99566.34
2023-03-30T13:55:50.648Z,99561.33
2023-03-30T13:58:30.735Z,99559.53
2023-03-30T14:01:14.799Z,99561.33
2023-03-30T14:03:58.860Z,99560.44
2023-03-30T14:06:35.666Z,99553.61
2023-03-30T14:09:12.760Z,99549.52
2023-03-30T14:11:50.024Z,99544.73
2023-03-30T14:14:36.551Z,99556.58
2023-03-30T14:17:23.284Z,99550.55
2023-03-30T14:20:41.436Z,99542.04
2023-03-30T14:23:40.772Z,99549.25
2023-03-30T14:26:28.853Z,99545.41
2023-03-30T14:29:11.271Z,99539.22
2023-03-30T14:31:56.813Z,99545.00
2023-03-30T14:34:32.636Z,99542.17
2023-03-30T14:37:11.403Z,99537.55
2023-03-30T14:39:51.514Z,99539.59
2023-03-30T14:42:27.469Z,99540.00
2023-03-30T14:45:01.063Z,99530.73
2023-03-30T14:47:34.554Z,99537.31
2023-03-30T14:50:09.651Z,99537.68
2023-03-30T14:52:47.176Z,99536.80
2023-03-30T14:55:25.558Z,99536.53
2023-03-30T14:57:58.857Z,99531.13
2023-03-30T15:00:32.003Z,99537.94
2023-03-30T15:03:06.509Z,99533.06
2023-03-30T15:05:42.999Z,99539.50
2023-03-30T15:08:26.170Z,99538.98
2023-03-30T15:11:05.025Z,99532.02
2023-03-30T15:13:41.883Z,99533.58
2023-03-30T15:16:19.258Z,99538.32
2023-03-30T15:18:54.760Z,99532.95
2023-03-30T15:21:27.895Z,99542.05
2023-03-30T15:24:01.503Z,99548.35
2023-03-30T15:26:35.260Z,99535.37
2023-03-30T15:29:08.997Z,99538.47
2023-03-30T15:31:44.713Z,99540.39
2023-03-30T15:34:19.202Z,99536.00
2023-03-30T15:36:57.116Z,99536.80
2023-03-30T15:39:34.891Z,99545.00
2023-03-30T15:42:12.043Z,99542.30
2023-03-30T15:44:44.832Z,99541.94
2023-03-30T15:47:20.215Z,99539.23
2023-03-30T15:49:54.215Z,99540.12
2023-03-30T15:52:37.093Z,99534.59
2023-03-30T15:55:25.775Z,99534.45
2023-03-30T15:57:59.919Z,99528.56
2023-03-30T16:00:36.027Z,99525.46
2023-03-30T16:03:13.915Z,99523.81
2023-03-30T16:05:47.303Z,99529.72
2023-03-30T16:08:20.269Z,99530.11
2023-03-30T16:10:53.938Z,99524.58
2023-03-30T16:13:28.068Z,99520.85
2023-03-30T16:16:01.074Z,99526.13
2023-03-30T16:18:35.624Z,99521.75
2023-03-30T16:21:11.077Z,99520.73
2023-03-30T16:23:44.561Z,99525.87
2023-03-30T16:26:17.577Z,99521.61
2023-03-30T16:28:52.701Z,99518.16
2023-03-30T16:31:26.125Z,99519.58
2023-03-30T16:33:59.151Z,99524.69
2023-03-30T16:36:32.172Z,99525.08
2023-03-30T16:39:06.862Z,99518.52
2023-03-30T16:41:39.892Z,99527.52
2023-03-30T16:44:13.138Z,99526.76
2023-03-30T16:46:46.994Z,99523.03
2023-03-30T16:49:24.729Z,99528.44
2023-03-30T16:51:58.233Z,99526.89
2023-03-30T16:54:33.004Z,99525.87
2023-03-30T16:57:09.394Z,99525.87
2023-03-30T16:59:42.802Z,99522.14
2023-03-30T17:02:18.878Z,99532.69
2023-03-30T17:04:50.795Z,99533.57
2023-03-30T17:07:23.942Z,99528.30
2023-03-30T17:09:57.041Z,99527.91
2023-03-30T17:12:30.658Z,99524.05
2023-03-30T17:15:04.045Z,99534.59
2023-03-30T17:17:37.768Z,99532.16
2023-03-30T17:20:41.620Z,99531.62
2023-03-30T17:23:14.240Z,99529.58
2023-03-30T17:25:49.534Z,99530.23
2023-03-30T17:28:30.072Z,99532.15
2023-03-30T17:31:07.127Z,99533.43
2023-03-30T17:33:41.360Z,99521.87
2023-03-30T17:36:23.005Z,99525.46
2023-03-30T17:38:57.150Z,99526.48
2023-03-30T17:41:29.826Z,99516.47
2023-03-30T17:44:02.944Z,99517.27
2023-03-30T17:46:36.528Z,99511.73
2023-03-30T17:49:14.182Z,99510.05
2023-03-30T17:51:47.495Z,99511.73
2023-03-30T17:54:21.440Z,99501.98
2023-03-30T17:56:54.987Z,99504.15
2023-03-30T17:59:28.260Z,99494.77
2023-03-30T18:02:01.198Z,99495.16
2023-03-30T18:04:35.547Z,99493.47
2023-03-30T18:07:09.694Z,99491.30
2023-03-30T18:09:42.805Z,99484.75
2023-03-30T18:12:16.541Z,99485.51
2023-03-30T18:14:49.274Z,99486.66
2023-03-30T18:17:23.887Z,99486.80
2023-03-30T18:19:56.603Z,99487.95
2023-03-30T18:22:29.480Z,99481.92
2023-03-30T18:25:02.350Z,99480.23
2023-03-30T18:27:36.272Z,99469.96
2023-03-30T18:30:21.131Z,99467.52
2023-03-30T18:32:53.868Z,99470.88
2023-03-30T18:35:30.547Z,99468.05
2023-03-30T18:38:04.803Z,99460.58
2023-03-30T18:40:38.870Z,99464.56
2023-03-30T18:43:11.608Z,99463.05
2023-03-30T18:45:48.262Z,99464.82
2023-03-30T18:48:23.023Z,99459.42
2023-03-30T18:50:57.732Z,99462.13
2023-03-30T18:53:31.108Z,99453.89
2023-03-30T18:56:04.945Z,99456.59
2023-03-30T18:58:40.128Z,99453.39
2023-03-30T19:01:15.466Z,99452.64
2023-03-30T19:03:49.770Z,99447.86
2023-03-30T19:06:24.291Z,99448.52
2023-03-30T19:08:57.839Z,99439.25
2023-03-30T19:11:30.813Z,99445.45
2023-03-30T19:14:04.862Z,99437.34
2023-03-30T19:16:37.876Z,99441.19
2023-03-30T19:19:14.947Z,99433.48
2023-03-30T19:21:47.323Z,99435.92
2023-03-30T19:24:20.137Z,99430.78
2023-03-30T19:26:52.832Z,99427.45
2023-03-30T19:29:26.339Z,99429.50
2023-03-30T19:32:00.253Z,99425.65
2023-03-30T19:34:33.227Z,99422.06
2023-03-30T19:37:06.957Z,99423.84
2023-03-30T19:39:39.799Z,99423.84
2023-03-30T19:42:12.907Z,99415.89
2023-03-30T19:44:46.252Z,99421.03
2023-03-30T19:47:19.468Z,99411.64
2023-03-30T19:49:52.679Z,99410.36
2023-03-30T19:52:26.829Z,99408.80
2023-03-30T19:55:00.702Z,99409.95
2023-03-30T19:57:34.020Z,99402.63
2023-03-30T20:00:16.141Z,99399.54
2023-03-30T20:02:55.349Z,99403.80
2023-03-30T20:05:28.462Z,99402.50
2023-03-30T20:08:07.967Z,99397.77
2023-03-30T20:10:37.342Z,99392.75
2023-03-30T20:13:10.576Z,99392.88
2023-03-30T20:15:45.235Z,99386.05
2023-03-30T20:18:20.859Z,99387.73
2023-03-30T20:20:53.745Z,99386.82
2023-03-30T20:23:27.373Z,99387.59
2023-03-30T20:26:03.069Z,99381.56
2023-03-30T20:28:36.518Z,99377.71
2023-03-30T20:31:10.106Z,99374.74
2023-03-30T20:33:43.354Z,99375.14
2023-03-30T20:36:16.770Z,99371.41
2023-03-30T20:38:50.516Z,99371.67
2023-03-30T20:41:23.471Z,99365.48
2023-03-30T20:43:57.622Z,99370.25
2023-03-30T20:46:32.485Z,99369.45
2023-03-30T20:49:06.648Z,99369.86
2023-03-30T20:51:42.249Z,99359.58
2023-03-30T20:54:15.198Z,99356.73
2023-03-30T20:56:48.051Z,99367.28
2023-03-30T20:59:21.474Z,99370.38
2023-03-30T21:01:56.604Z,99364.32
2023-03-30T21:04:29.398Z,99359.58
2023-03-30T21:07:02.609Z,99351.59
2023-03-30T21:09:35.906Z,99356.98
2023-03-30T21:12:10.021Z,99350.20
2023-03-30T21:14:45.326Z,99345.69
2023-03-30T21:17:18.955Z,99344.53
2023-03-30T21:19:51.644Z,99337.07
2023-03-30T21:22:25.254Z,99332.69
2023-03-30T21:24:58.211Z,99330.13
2023-03-30T21:27:31.116Z,99332.56
2023-03-30T21:30:04.673Z,99327.83
2023-03-30T21:32:37.771Z,99324.49
2023-03-30T21:35:10.745Z,99319.84
2023-03-30T21:37:44.117Z,99318.68
2023-03-30T21:40:16.925Z,99321.77
2023-03-30T21:42:49.792Z,99313.02
2023-03-30T21:45:24.887Z,99313.64
2023-03-30T21:47:57.712Z,99312.75
2023-03-30T21:50:30.625Z,99312.63
2023-03-30T21:53:03.344Z,99308.64
2023-03-30T21:55:36.810Z,99307.36
2023-03-30T21:58:09.612Z,99301.82
2023-03-30T22:00:46.590Z,99297.96
2023-03-30T22:03:20.625Z,99298.89
2023-03-30T22:05:53.288Z,99295.39
2023-03-30T22:08:26.104Z,99289.09
2023-03-30T22:11:12.635Z,99290.13
2023-03-30T22:13:48.446Z,99291.42
2023-03-30T22:16:27.876Z,99286.77
2023-03-30T22:19:01.257Z,99288.97
2023-03-30T22:21:37.578Z,99289.22
2023-03-30T22:24:12.157Z,99281.47
2023-03-30T22:26:46.069Z,99276.85
2023-03-30T22:29:20.570Z,99276.17
2023-03-30T22:31:54.955Z,99274.25
2023-03-30T22:34:28.916Z,99273.97
2023-03-30T22:37:02.755Z,99265.22
2023-03-30T22:39:38.104Z,99264.05
2023-03-30T22:42:11.616Z,99256.05
2023-03-30T22:44:44.847Z,99257.86
2023-03-30T22:47:17.719Z,99254.64
2023-03-30T22:49:50.833Z,99248.05
2023-03-30T22:52:26.866Z,99245.33
2023-03-30T22:54:59.546Z,99248.91
2023-03-30T22:57:33.063Z,99245.84
2023-03-30T23:00:09.277Z,99247.25
2023-03-30T23:02:42.973Z,99246.56
2023-03-30T23:05:16.030Z,99241.55
2023-03-30T23:07:50.931Z,99237.56
2023-03-30T23:10:25.777Z,99238.56
2023-03-30T23:12:59.318Z,99233.94
2023-03-30T23:15:32.572Z,99228.51
2023-03-30T23:18:06.246Z,99228.23
2023-03-30T23:20:39.340Z,99221.91
2023-03-30T23:23:12.240Z,99210.57
2023-03-30T23:25:52.877Z,99216.70
2023-03-30T23:28:25.733Z,99206.90
2023-03-30T23:30:59.276Z,99203.55
2023-03-30T23:33:33.044Z,99208.82
2023-03-30T23:36:07.595Z,99204.95
2023-03-30T23:38:41.896Z,99202.63
2023-03-30T23:41:20.859Z,99204.80
2023-03-30T23:43:54.214Z,99192.84
2023-03-30T23:46:27.281Z,99191.16
2023-03-30T23:49:00.635Z,99196.82
2023-03-30T23:51:33.885Z,99190.98
2023-03-30T23:54:07.440Z,99196.65
2023-03-30T23:56:44.915Z,99206.95
2023-03-30T23:59:18.930Z,99196.13
